LXGB

Details ICAO LXGB (GIB)
Name Gibraltar
Region Gibralter
Timezone Europe/Gibraltar (UTC+1.0)
Plans Departing 2462
Arriving 3336
Stats Elevation 15 ft / 5 m (AMSL)
Location 36.151200° -5.349850°
Runways 1
Magnetic Variation 0.797° W
Sunrise 2020-10-27 06:40:43 UTC / 2020-10-27 07:40:43 Local
Sunset 2020-10-27 17:32:08 UTC / 2020-10-27 18:32:08 Local
Advertisement - Login to hide

Runways

ID Width Length Bearing (true/mag) Surface Threshold Overrun Markings Lighting
09 148 ft / 45 m 5,836 ft / 1,779 m 87.52° / 88.32° ASPHALT 476 ft / 145 m 0 ft / 0 m UK-PREC-APP EDGE THRESHOLD REIL-OMNI
27 148 ft / 45 m 5,836 ft / 1,779 m 267.53° / 268.33° ASPHALT 354 ft / 108 m 0 ft / 0 m UK-PREC-APP EDGE THRESHOLD REIL-OMNI

Map

Weather


0- 5 10 15 20 25 30 35+ Temperature / °C

Clouds and Precipitation
Forecast for 2020-10-27 12:00 UTC. Updated 3 hours ago

Ground ~20,000 ft ~40,000 ft Winds

METAR

LXGB 271150Z 10006KT CAVOK 19/08 Q1021 NOSIG

TAF

Not found

Frequencies

Approach 264.87 MHz Gibraltar Approach
Approach 130.40 MHz Gibraltar Radar
Approach 235.05 MHz Gibraltar Radar
Tower 131.20 MHz Gibraltar Tower
Tower 240.57 MHz Gibraltar Tower
Approach 122.80 MHz Gibraltar Approach
Warning: Do not use this data for real-world aviation or navigation. No guarantee of current accuracy is given.